New Orleans, Louisiana
Current Conditions -  °F | °C
As of 7:35 AM on Thursday 23 Oct 2014 (Local Time) from KVSH Reporting Station
Clear Clear  
Wind Chill: 16°   Ceiling: Unl
Heat Index: 16°   Visibility: 10mi
Dew Point:   Wind: 5mph
Humidity: 59%   Direction: 40°NE
Pressure: 30.08"   Gusts: NA
Location:  29.95°N, 90.08°W
Report Text: KVSH 231235Z AUTO 04004KT 10SM CLR 16/08 A3008 RMK AO1
Loading
Personal Weather Stations






























Interactive Weather Map
Tropical Storm Tracking
New forecast layout! Learn more

10-Day Weather Forecast

Advertisements
Track Severe Weather on mobile